sensor_id;sensor_type;location;lat;lon;timestamp;P1;durP1;ratioP1;P2;durP2;ratioP2
55210;SDS011;41082;52.822;6.666;2024-03-22T00:00:12;39.85;;;28.52;;
55210;SDS011;41082;52.822;6.666;2024-03-22T00:02:38;40.05;;;28.60;;
55210;SDS011;41082;52.822;6.666;2024-03-22T00:05:04;41.15;;;30.10;;
55210;SDS011;41082;52.822;6.666;2024-03-22T00:07:30;40.25;;;29.02;;
55210;SDS011;41082;52.822;6.666;2024-03-22T00:09:56;40.25;;;29.65;;
55210;SDS011;41082;52.822;6.666;2024-03-22T00:12:22;41.08;;;30.08;;
55210;SDS011;41082;52.822;6.666;2024-03-22T00:14:47;42.42;;;30.23;;
55210;SDS011;41082;52.822;6.666;2024-03-22T00:17:13;43.63;;;31.02;;
55210;SDS011;41082;52.822;6.666;2024-03-22T00:19:39;43.97;;;31.48;;
55210;SDS011;41082;52.822;6.666;2024-03-22T00:22:05;48.17;;;31.92;;
55210;SDS011;41082;52.822;6.666;2024-03-22T00:24:30;45.65;;;33.10;;
55210;SDS011;41082;52.822;6.666;2024-03-22T00:26:56;46.08;;;31.77;;
55210;SDS011;41082;52.822;6.666;2024-03-22T00:29:21;45.95;;;31.90;;
55210;SDS011;41082;52.822;6.666;2024-03-22T00:31:47;51.05;;;33.22;;
55210;SDS011;41082;52.822;6.666;2024-03-22T00:34:13;45.05;;;31.92;;
55210;SDS011;41082;52.822;6.666;2024-03-22T00:36:38;48.47;;;33.45;;
55210;SDS011;41082;52.822;6.666;2024-03-22T00:39:04;48.42;;;33.10;;
55210;SDS011;41082;52.822;6.666;2024-03-22T00:41:30;48.58;;;35.08;;
55210;SDS011;41082;52.822;6.666;2024-03-22T00:43:55;47.45;;;32.92;;
55210;SDS011;41082;52.822;6.666;2024-03-22T00:46:21;51.47;;;33.75;;
55210;SDS011;41082;52.822;6.666;2024-03-22T00:48:47;46.50;;;33.60;;
55210;SDS011;41082;52.822;6.666;2024-03-22T00:51:12;50.30;;;33.95;;
55210;SDS011;41082;52.822;6.666;2024-03-22T00:53:38;46.53;;;33.45;;
55210;SDS011;41082;52.822;6.666;2024-03-22T00:56:03;49.53;;;34.22;;
55210;SDS011;41082;52.822;6.666;2024-03-22T00:58:29;51.30;;;34.15;;
55210;SDS011;41082;52.822;6.666;2024-03-22T01:00:55;49.13;;;33.55;;
55210;SDS011;41082;52.822;6.666;2024-03-22T01:03:21;52.40;;;33.83;;
55210;SDS011;41082;52.822;6.666;2024-03-22T01:05:47;52.30;;;34.03;;
55210;SDS011;41082;52.822;6.666;2024-03-22T01:08:12;51.88;;;34.47;;
55210;SDS011;41082;52.822;6.666;2024-03-22T01:10:38;53.65;;;34.92;;
55210;SDS011;41082;52.822;6.666;2024-03-22T01:13:04;52.95;;;35.35;;
55210;SDS011;41082;52.822;6.666;2024-03-22T01:15:31;54.03;;;35.90;;
55210;SDS011;41082;52.822;6.666;2024-03-22T01:17:57;50.08;;;35.53;;
55210;SDS011;41082;52.822;6.666;2024-03-22T01:20:22;53.53;;;35.28;;
55210;SDS011;41082;52.822;6.666;2024-03-22T01:22:48;56.42;;;37.67;;
55210;SDS011;41082;52.822;6.666;2024-03-22T01:25:14;53.20;;;35.67;;
55210;SDS011;41082;52.822;6.666;2024-03-22T01:27:40;55.88;;;36.40;;
55210;SDS011;41082;52.822;6.666;2024-03-22T01:30:05;60.65;;;36.65;;
55210;SDS011;41082;52.822;6.666;2024-03-22T01:32:31;58.75;;;36.30;;
55210;SDS011;41082;52.822;6.666;2024-03-22T01:34:57;54.50;;;37.13;;
55210;SDS011;41082;52.822;6.666;2024-03-22T01:37:23;58.25;;;36.78;;
55210;SDS011;41082;52.822;6.666;2024-03-22T01:39:48;58.25;;;37.30;;
55210;SDS011;41082;52.822;6.666;2024-03-22T01:42:14;59.10;;;36.83;;
55210;SDS011;41082;52.822;6.666;2024-03-22T01:44:40;60.70;;;36.85;;
55210;SDS011;41082;52.822;6.666;2024-03-22T01:47:06;62.88;;;38.13;;
55210;SDS011;41082;52.822;6.666;2024-03-22T01:49:32;60.50;;;36.88;;
55210;SDS011;41082;52.822;6.666;2024-03-22T01:51:58;60.05;;;38.63;;
55210;SDS011;41082;52.822;6.666;2024-03-22T01:54:23;62.03;;;39.30;;
55210;SDS011;41082;52.822;6.666;2024-03-22T01:56:49;62.38;;;38.67;;
55210;SDS011;41082;52.822;6.666;2024-03-22T01:59:15;58.83;;;38.47;;
55210;SDS011;41082;52.822;6.666;2024-03-22T02:01:41;62.28;;;39.80;;
55210;SDS011;41082;52.822;6.666;2024-03-22T02:04:07;63.67;;;38.95;;
55210;SDS011;41082;52.822;6.666;2024-03-22T02:06:33;61.42;;;38.55;;
55210;SDS011;41082;52.822;6.666;2024-03-22T02:08:59;60.13;;;38.78;;
55210;SDS011;41082;52.822;6.666;2024-03-22T02:11:28;63.25;;;39.47;;
55210;SDS011;41082;52.822;6.666;2024-03-22T02:13:54;60.13;;;38.78;;
55210;SDS011;41082;52.822;6.666;2024-03-22T02:16:19;62.80;;;37.90;;
55210;SDS011;41082;52.822;6.666;2024-03-22T02:18:45;65.90;;;40.10;;
55210;SDS011;41082;52.822;6.666;2024-03-22T02:21:11;66.60;;;39.03;;
55210;SDS011;41082;52.822;6.666;2024-03-22T02:23:37;64.65;;;40.35;;
55210;SDS011;41082;52.822;6.666;2024-03-22T02:26:04;63.53;;;38.80;;
55210;SDS011;41082;52.822;6.666;2024-03-22T02:28:31;60.22;;;38.13;;
55210;SDS011;41082;52.822;6.666;2024-03-22T02:30:57;63.80;;;39.63;;
55210;SDS011;41082;52.822;6.666;2024-03-22T02:33:23;61.75;;;38.63;;
55210;SDS011;41082;52.822;6.666;2024-03-22T02:35:49;64.93;;;39.75;;
55210;SDS011;41082;52.822;6.666;2024-03-22T02:38:16;62.80;;;39.60;;
55210;SDS011;41082;52.822;6.666;2024-03-22T02:40:45;64.10;;;39.63;;
55210;SDS011;41082;52.822;6.666;2024-03-22T02:43:12;64.97;;;39.60;;
55210;SDS011;41082;52.822;6.666;2024-03-22T02:45:38;67.78;;;40.28;;
55210;SDS011;41082;52.822;6.666;2024-03-22T02:48:04;65.82;;;41.25;;
55210;SDS011;41082;52.822;6.666;2024-03-22T02:50:36;65.63;;;39.83;;
55210;SDS011;41082;52.822;6.666;2024-03-22T02:53:02;66.00;;;39.72;;
55210;SDS011;41082;52.822;6.666;2024-03-22T02:55:29;65.85;;;39.67;;
55210;SDS011;41082;52.822;6.666;2024-03-22T02:57:56;65.75;;;39.78;;
55210;SDS011;41082;52.822;6.666;2024-03-22T03:00:22;65.60;;;40.35;;
55210;SDS011;41082;52.822;6.666;2024-03-22T03:02:48;65.63;;;38.92;;
55210;SDS011;41082;52.822;6.666;2024-03-22T03:05:14;65.32;;;40.38;;
55210;SDS011;41082;52.822;6.666;2024-03-22T03:07:39;65.25;;;38.88;;
55210;SDS011;41082;52.822;6.666;2024-03-22T03:10:05;65.82;;;40.22;;
55210;SDS011;41082;52.822;6.666;2024-03-22T03:12:31;67.80;;;39.85;;
55210;SDS011;41082;52.822;6.666;2024-03-22T03:14:57;61.63;;;39.08;;
55210;SDS011;41082;52.822;6.666;2024-03-22T03:17:23;66.68;;;40.72;;
55210;SDS011;41082;52.822;6.666;2024-03-22T03:19:49;72.20;;;40.85;;
55210;SDS011;41082;52.822;6.666;2024-03-22T03:22:14;67.70;;;40.53;;
55210;SDS011;41082;52.822;6.666;2024-03-22T03:24:40;67.70;;;39.00;;
55210;SDS011;41082;52.822;6.666;2024-03-22T03:27:06;65.25;;;41.33;;
55210;SDS011;41082;52.822;6.666;2024-03-22T03:29:32;67.38;;;40.72;;
55210;SDS011;41082;52.822;6.666;2024-03-22T03:31:57;64.00;;;39.28;;
55210;SDS011;41082;52.822;6.666;2024-03-22T03:34:23;67.07;;;40.47;;
55210;SDS011;41082;52.822;6.666;2024-03-22T03:36:49;67.68;;;40.33;;
55210;SDS011;41082;52.822;6.666;2024-03-22T03:39:14;64.10;;;39.13;;
55210;SDS011;41082;52.822;6.666;2024-03-22T03:41:40;68.63;;;40.88;;
55210;SDS011;41082;52.822;6.666;2024-03-22T03:44:05;70.75;;;40.78;;
55210;SDS011;41082;52.822;6.666;2024-03-22T03:46:31;64.53;;;40.63;;
55210;SDS011;41082;52.822;6.666;2024-03-22T03:48:57;65.28;;;41.00;;
55210;SDS011;41082;52.822;6.666;2024-03-22T03:51:22;63.53;;;39.67;;
55210;SDS011;41082;52.822;6.666;2024-03-22T03:53:48;62.85;;;37.85;;
55210;SDS011;41082;52.822;6.666;2024-03-22T03:56:13;63.42;;;38.95;;
55210;SDS011;41082;52.822;6.666;2024-03-22T03:58:39;64.57;;;39.95;;
55210;SDS011;41082;52.822;6.666;2024-03-22T04:01:05;63.20;;;39.50;;
55210;SDS011;41082;52.822;6.666;2024-03-22T04:03:32;59.97;;;37.67;;
55210;SDS011;41082;52.822;6.666;2024-03-22T04:05:57;65.30;;;37.72;;
55210;SDS011;41082;52.822;6.666;2024-03-22T04:08:25;64.40;;;38.15;;
55210;SDS011;41082;52.822;6.666;2024-03-22T04:10:54;60.22;;;37.95;;
55210;SDS011;41082;52.822;6.666;2024-03-22T04:13:23;63.30;;;37.13;;
55210;SDS011;41082;52.822;6.666;2024-03-22T04:15:50;65.15;;;38.10;;
55210;SDS011;41082;52.822;6.666;2024-03-22T04:18:16;63.35;;;37.65;;
55210;SDS011;41082;52.822;6.666;2024-03-22T04:20:41;64.05;;;36.63;;
55210;SDS011;41082;52.822;6.666;2024-03-22T04:23:08;58.42;;;36.25;;
55210;SDS011;41082;52.822;6.666;2024-03-22T04:25:34;66.80;;;37.28;;
55210;SDS011;41082;52.822;6.666;2024-03-22T04:28:00;62.47;;;37.42;;
55210;SDS011;41082;52.822;6.666;2024-03-22T04:30:26;65.18;;;38.47;;
55210;SDS011;41082;52.822;6.666;2024-03-22T04:32:51;61.97;;;36.78;;
55210;SDS011;41082;52.822;6.666;2024-03-22T04:35:17;62.67;;;37.63;;
55210;SDS011;41082;52.822;6.666;2024-03-22T04:37:43;61.28;;;38.08;;
55210;SDS011;41082;52.822;6.666;2024-03-22T04:40:08;68.43;;;38.40;;
55210;SDS011;41082;52.822;6.666;2024-03-22T04:42:35;64.63;;;37.38;;
55210;SDS011;41082;52.822;6.666;2024-03-22T04:45:00;62.58;;;38.17;;
55210;SDS011;41082;52.822;6.666;2024-03-22T04:47:26;67.70;;;39.03;;
55210;SDS011;41082;52.822;6.666;2024-03-22T04:49:52;62.15;;;37.58;;
55210;SDS011;41082;52.822;6.666;2024-03-22T04:52:17;68.03;;;39.63;;
55210;SDS011;41082;52.822;6.666;2024-03-22T04:54:43;59.55;;;36.50;;
55210;SDS011;41082;52.822;6.666;2024-03-22T04:57:09;65.20;;;38.80;;
55210;SDS011;41082;52.822;6.666;2024-03-22T04:59:34;64.15;;;38.78;;
55210;SDS011;41082;52.822;6.666;2024-03-22T05:02:00;68.88;;;39.72;;
55210;SDS011;41082;52.822;6.666;2024-03-22T05:04:26;64.53;;;39.35;;
55210;SDS011;41082;52.822;6.666;2024-03-22T05:06:51;68.38;;;39.53;;
55210;SDS011;41082;52.822;6.666;2024-03-22T05:09:17;63.85;;;38.67;;
55210;SDS011;41082;52.822;6.666;2024-03-22T05:11:42;65.95;;;39.63;;
55210;SDS011;41082;52.822;6.666;2024-03-22T05:14:08;67.55;;;39.40;;
55210;SDS011;41082;52.822;6.666;2024-03-22T05:16:34;69.50;;;40.88;;
55210;SDS011;41082;52.822;6.666;2024-03-22T05:19:00;69.10;;;40.50;;
55210;SDS011;41082;52.822;6.666;2024-03-22T05:21:25;66.72;;;39.78;;
55210;SDS011;41082;52.822;6.666;2024-03-22T05:23:51;66.25;;;39.20;;
55210;SDS011;41082;52.822;6.666;2024-03-22T05:26:17;62.15;;;38.05;;
55210;SDS011;41082;52.822;6.666;2024-03-22T05:28:44;67.13;;;38.63;;
55210;SDS011;41082;52.822;6.666;2024-03-22T05:31:09;67.28;;;39.95;;
55210;SDS011;41082;52.822;6.666;2024-03-22T05:33:35;65.15;;;38.85;;
55210;SDS011;41082;52.822;6.666;2024-03-22T05:36:01;65.18;;;38.45;;
55210;SDS011;41082;52.822;6.666;2024-03-22T05:38:26;61.83;;;37.70;;
55210;SDS011;41082;52.822;6.666;2024-03-22T05:40:52;64.93;;;36.60;;
55210;SDS011;41082;52.822;6.666;2024-03-22T05:43:17;62.00;;;37.72;;
55210;SDS011;41082;52.822;6.666;2024-03-22T05:45:43;69.78;;;39.25;;
55210;SDS011;41082;52.822;6.666;2024-03-22T05:48:08;64.82;;;37.80;;
55210;SDS011;41082;52.822;6.666;2024-03-22T05:50:34;75.70;;;39.33;;
55210;SDS011;41082;52.822;6.666;2024-03-22T05:53:00;74.18;;;40.35;;
55210;SDS011;41082;52.822;6.666;2024-03-22T05:55:25;74.70;;;41.13;;
55210;SDS011;41082;52.822;6.666;2024-03-22T05:57:52;68.18;;;38.47;;
55210;SDS011;41082;52.822;6.666;2024-03-22T06:00:18;67.22;;;39.17;;
55210;SDS011;41082;52.822;6.666;2024-03-22T06:02:43;67.68;;;38.20;;
55210;SDS011;41082;52.822;6.666;2024-03-22T06:05:09;70.60;;;37.72;;
55210;SDS011;41082;52.822;6.666;2024-03-22T06:07:35;70.63;;;38.80;;
55210;SDS011;41082;52.822;6.666;2024-03-22T06:12:33;69.97;;;39.28;;
55210;SDS011;41082;52.822;6.666;2024-03-22T06:14:58;68.65;;;38.95;;
55210;SDS011;41082;52.822;6.666;2024-03-22T06:17:24;62.33;;;37.05;;
55210;SDS011;41082;52.822;6.666;2024-03-22T06:19:49;70.65;;;38.20;;
55210;SDS011;41082;52.822;6.666;2024-03-22T06:22:15;64.22;;;35.85;;
55210;SDS011;41082;52.822;6.666;2024-03-22T06:24:41;64.57;;;34.63;;
55210;SDS011;41082;52.822;6.666;2024-03-22T06:27:06;62.75;;;35.88;;
55210;SDS011;41082;52.822;6.666;2024-03-22T06:29:32;62.22;;;36.50;;
55210;SDS011;41082;52.822;6.666;2024-03-22T06:31:58;60.10;;;34.72;;
55210;SDS011;41082;52.822;6.666;2024-03-22T06:34:23;63.20;;;36.53;;
55210;SDS011;41082;52.822;6.666;2024-03-22T06:36:49;62.70;;;34.88;;
55210;SDS011;41082;52.822;6.666;2024-03-22T06:39:15;61.85;;;35.05;;
55210;SDS011;41082;52.822;6.666;2024-03-22T06:41:41;59.65;;;33.63;;
55210;SDS011;41082;52.822;6.666;2024-03-22T06:44:07;60.83;;;34.75;;
55210;SDS011;41082;52.822;6.666;2024-03-22T06:46:36;61.03;;;34.30;;
55210;SDS011;41082;52.822;6.666;2024-03-22T06:49:02;58.70;;;34.00;;
55210;SDS011;41082;52.822;6.666;2024-03-22T06:51:28;61.90;;;34.67;;
55210;SDS011;41082;52.822;6.666;2024-03-22T06:53:53;53.80;;;32.92;;
55210;SDS011;41082;52.822;6.666;2024-03-22T06:56:19;59.85;;;33.47;;
55210;SDS011;41082;52.822;6.666;2024-03-22T06:58:45;58.20;;;33.15;;
55210;SDS011;41082;52.822;6.666;2024-03-22T07:01:11;59.35;;;33.88;;
55210;SDS011;41082;52.822;6.666;2024-03-22T07:03:36;56.30;;;32.10;;
55210;SDS011;41082;52.822;6.666;2024-03-22T07:06:02;55.90;;;33.00;;
55210;SDS011;41082;52.822;6.666;2024-03-22T07:08:28;59.25;;;34.60;;
55210;SDS011;41082;52.822;6.666;2024-03-22T07:10:53;58.60;;;33.22;;
55210;SDS011;41082;52.822;6.666;2024-03-22T07:13:19;53.60;;;31.42;;
55210;SDS011;41082;52.822;6.666;2024-03-22T07:15:46;55.70;;;30.63;;
55210;SDS011;41082;52.822;6.666;2024-03-22T07:18:12;51.10;;;30.52;;
55210;SDS011;41082;52.822;6.666;2024-03-22T07:20:39;50.40;;;30.52;;
55210;SDS011;41082;52.822;6.666;2024-03-22T07:23:05;52.05;;;30.90;;
55210;SDS011;41082;52.822;6.666;2024-03-22T07:25:30;48.63;;;28.55;;
55210;SDS011;41082;52.822;6.666;2024-03-22T07:27:56;50.63;;;28.33;;
55210;SDS011;41082;52.822;6.666;2024-03-22T07:30:22;47.13;;;28.48;;
55210;SDS011;41082;52.822;6.666;2024-03-22T07:32:48;49.38;;;28.50;;
55210;SDS011;41082;52.822;6.666;2024-03-22T07:35:13;47.97;;;28.73;;
55210;SDS011;41082;52.822;6.666;2024-03-22T07:37:39;49.05;;;27.48;;
55210;SDS011;41082;52.822;6.666;2024-03-22T07:40:05;44.63;;;26.30;;
55210;SDS011;41082;52.822;6.666;2024-03-22T07:42:31;44.88;;;26.52;;
55210;SDS011;41082;52.822;6.666;2024-03-22T07:44:57;44.85;;;26.30;;
55210;SDS011;41082;52.822;6.666;2024-03-22T07:47:22;48.88;;;27.35;;
55210;SDS011;41082;52.822;6.666;2024-03-22T07:49:48;40.38;;;25.63;;
55210;SDS011;41082;52.822;6.666;2024-03-22T07:52:14;41.53;;;23.42;;
55210;SDS011;41082;52.822;6.666;2024-03-22T07:54:39;47.70;;;23.90;;
55210;SDS011;41082;52.822;6.666;2024-03-22T07:57:05;44.97;;;23.92;;
55210;SDS011;41082;52.822;6.666;2024-03-22T07:59:30;40.22;;;24.67;;
55210;SDS011;41082;52.822;6.666;2024-03-22T08:01:57;38.88;;;23.88;;
55210;SDS011;41082;52.822;6.666;2024-03-22T08:04:23;38.83;;;23.48;;
55210;SDS011;41082;52.822;6.666;2024-03-22T08:06:50;41.03;;;22.70;;
55210;SDS011;41082;52.822;6.666;2024-03-22T08:09:16;42.35;;;21.65;;
55210;SDS011;41082;52.822;6.666;2024-03-22T08:11:43;36.22;;;21.15;;
55210;SDS011;41082;52.822;6.666;2024-03-22T08:14:09;36.42;;;20.65;;
55210;SDS011;41082;52.822;6.666;2024-03-22T08:16:35;37.38;;;21.35;;
55210;SDS011;41082;52.822;6.666;2024-03-22T08:19:01;38.10;;;21.35;;
55210;SDS011;41082;52.822;6.666;2024-03-22T08:21:26;40.85;;;21.95;;
55210;SDS011;41082;52.822;6.666;2024-03-22T08:23:52;35.05;;;20.15;;
55210;SDS011;41082;52.822;6.666;2024-03-22T08:26:18;40.88;;;21.33;;
55210;SDS011;41082;52.822;6.666;2024-03-22T08:28:44;37.20;;;21.63;;
55210;SDS011;41082;52.822;6.666;2024-03-22T08:31:11;37.72;;;21.10;;
55210;SDS011;41082;52.822;6.666;2024-03-22T08:33:36;35.83;;;20.70;;
55210;SDS011;41082;52.822;6.666;2024-03-22T08:36:02;38.55;;;21.02;;
55210;SDS011;41082;52.822;6.666;2024-03-22T08:38:27;44.15;;;21.40;;
55210;SDS011;41082;52.822;6.666;2024-03-22T08:40:53;40.20;;;21.40;;
55210;SDS011;41082;52.822;6.666;2024-03-22T08:43:18;41.22;;;21.67;;
55210;SDS011;41082;52.822;6.666;2024-03-22T08:45:47;40.17;;;22.48;;
55210;SDS011;41082;52.822;6.666;2024-03-22T08:48:12;41.65;;;22.90;;
55210;SDS011;41082;52.822;6.666;2024-03-22T08:50:38;44.75;;;21.08;;
55210;SDS011;41082;52.822;6.666;2024-03-22T08:53:03;42.20;;;21.75;;
55210;SDS011;41082;52.822;6.666;2024-03-22T08:55:31;35.67;;;20.25;;
55210;SDS011;41082;52.822;6.666;2024-03-22T08:57:56;39.15;;;20.65;;
55210;SDS011;41082;52.822;6.666;2024-03-22T09:00:22;35.08;;;19.40;;
55210;SDS011;41082;52.822;6.666;2024-03-22T09:02:47;34.22;;;19.17;;
55210;SDS011;41082;52.822;6.666;2024-03-22T09:05:13;37.03;;;18.08;;
55210;SDS011;41082;52.822;6.666;2024-03-22T09:07:38;27.95;;;16.63;;
55210;SDS011;41082;52.822;6.666;2024-03-22T09:10:05;36.88;;;17.83;;
55210;SDS011;41082;52.822;6.666;2024-03-22T09:12:31;36.55;;;17.05;;
55210;SDS011;41082;52.822;6.666;2024-03-22T09:14:57;26.67;;;16.00;;
55210;SDS011;41082;52.822;6.666;2024-03-22T09:17:23;33.60;;;16.23;;
55210;SDS011;41082;52.822;6.666;2024-03-22T09:19:48;26.90;;;15.48;;
55210;SDS011;41082;52.822;6.666;2024-03-22T09:22:14;32.60;;;16.38;;
55210;SDS011;41082;52.822;6.666;2024-03-22T09:24:40;25.77;;;14.77;;
55210;SDS011;41082;52.822;6.666;2024-03-22T09:27:06;27.75;;;15.07;;
55210;SDS011;41082;52.822;6.666;2024-03-22T09:29:35;28.90;;;15.35;;
55210;SDS011;41082;52.822;6.666;2024-03-22T09:32:01;25.30;;;15.07;;
55210;SDS011;41082;52.822;6.666;2024-03-22T09:34:27;27.58;;;14.80;;
55210;SDS011;41082;52.822;6.666;2024-03-22T09:36:54;27.15;;;15.13;;
55210;SDS011;41082;52.822;6.666;2024-03-22T09:39:21;25.50;;;14.73;;
55210;SDS011;41082;52.822;6.666;2024-03-22T09:41:47;25.95;;;15.20;;
55210;SDS011;41082;52.822;6.666;2024-03-22T09:44:14;23.50;;;14.57;;
55210;SDS011;41082;52.822;6.666;2024-03-22T09:46:47;24.25;;;13.05;;
55210;SDS011;41082;52.822;6.666;2024-03-22T09:49:13;20.55;;;13.48;;
55210;SDS011;41082;52.822;6.666;2024-03-22T09:51:39;24.73;;;13.80;;
55210;SDS011;41082;52.822;6.666;2024-03-22T09:54:06;22.20;;;13.80;;
55210;SDS011;41082;52.822;6.666;2024-03-22T09:56:33;21.17;;;13.85;;
55210;SDS011;41082;52.822;6.666;2024-03-22T09:59:00;23.02;;;12.93;;
55210;SDS011;41082;52.822;6.666;2024-03-22T10:01:25;18.08;;;12.30;;
55210;SDS011;41082;52.822;6.666;2024-03-22T10:03:51;21.13;;;13.18;;
55210;SDS011;41082;52.822;6.666;2024-03-22T10:06:18;20.75;;;12.30;;
55210;SDS011;41082;52.822;6.666;2024-03-22T10:08:44;16.20;;;12.13;;
55210;SDS011;41082;52.822;6.666;2024-03-22T10:11:10;19.67;;;12.07;;
55210;SDS011;41082;52.822;6.666;2024-03-22T10:13:36;16.88;;;11.52;;
55210;SDS011;41082;52.822;6.666;2024-03-22T10:16:01;19.20;;;12.65;;
55210;SDS011;41082;52.822;6.666;2024-03-22T10:18:27;18.60;;;12.18;;
55210;SDS011;41082;52.822;6.666;2024-03-22T10:21:03;22.65;;;13.20;;
55210;SDS011;41082;52.822;6.666;2024-03-22T10:23:30;17.05;;;11.43;;
55210;SDS011;41082;52.822;6.666;2024-03-22T10:25:57;21.48;;;12.00;;
55210;SDS011;41082;52.822;6.666;2024-03-22T10:28:28;19.88;;;11.85;;
55210;SDS011;41082;52.822;6.666;2024-03-22T10:30:54;19.77;;;12.20;;
55210;SDS011;41082;52.822;6.666;2024-03-22T10:33:20;20.38;;;12.32;;
55210;SDS011;41082;52.822;6.666;2024-03-22T10:35:51;18.40;;;12.00;;
55210;SDS011;41082;52.822;6.666;2024-03-22T10:38:18;17.70;;;11.82;;
55210;SDS011;41082;52.822;6.666;2024-03-22T10:40:46;14.15;;;10.80;;
55210;SDS011;41082;52.822;6.666;2024-03-22T10:43:15;19.02;;;12.23;;
55210;SDS011;41082;52.822;6.666;2024-03-22T10:45:42;17.58;;;10.48;;
55210;SDS011;41082;52.822;6.666;2024-03-22T10:48:08;14.60;;;10.60;;
55210;SDS011;41082;52.822;6.666;2024-03-22T10:50:36;16.23;;;10.40;;
55210;SDS011;41082;52.822;6.666;2024-03-22T10:53:06;13.50;;;9.85;;
55210;SDS011;41082;52.822;6.666;2024-03-22T10:55:34;13.55;;;10.95;;
55210;SDS011;41082;52.822;6.666;2024-03-22T10:58:02;14.82;;;9.80;;
55210;SDS011;41082;52.822;6.666;2024-03-22T11:02:58;12.65;;;8.98;;
55210;SDS011;41082;52.822;6.666;2024-03-22T11:05:25;10.68;;;7.90;;
55210;SDS011;41082;52.822;6.666;2024-03-22T11:08:00;8.80;;;7.65;;
55210;SDS011;41082;52.822;6.666;2024-03-22T11:10:30;8.57;;;6.15;;
55210;SDS011;41082;52.822;6.666;2024-03-22T11:13:05;9.15;;;6.07;;
55210;SDS011;41082;52.822;6.666;2024-03-22T11:15:33;6.93;;;5.72;;
55210;SDS011;41082;52.822;6.666;2024-03-22T11:18:00;7.05;;;5.47;;
55210;SDS011;41082;52.822;6.666;2024-03-22T11:20:26;6.45;;;4.45;;
55210;SDS011;41082;52.822;6.666;2024-03-22T11:22:52;6.03;;;4.03;;
55210;SDS011;41082;52.822;6.666;2024-03-22T11:25:18;6.57;;;4.43;;
55210;SDS011;41082;52.822;6.666;2024-03-22T11:27:45;5.30;;;4.43;;
55210;SDS011;41082;52.822;6.666;2024-03-22T11:30:11;7.10;;;4.68;;
55210;SDS011;41082;52.822;6.666;2024-03-22T11:32:37;6.55;;;4.97;;
55210;SDS011;41082;52.822;6.666;2024-03-22T11:35:12;6.43;;;4.63;;
55210;SDS011;41082;52.822;6.666;2024-03-22T11:37:38;5.35;;;4.18;;
55210;SDS011;41082;52.822;6.666;2024-03-22T11:40:05;5.07;;;3.70;;
55210;SDS011;41082;52.822;6.666;2024-03-22T11:42:32;5.10;;;3.58;;
55210;SDS011;41082;52.822;6.666;2024-03-22T11:44:59;4.97;;;4.13;;
55210;SDS011;41082;52.822;6.666;2024-03-22T11:47:25;5.78;;;4.10;;
55210;SDS011;41082;52.822;6.666;2024-03-22T11:49:51;5.57;;;3.95;;
55210;SDS011;41082;52.822;6.666;2024-03-22T11:52:16;7.05;;;4.47;;
55210;SDS011;41082;52.822;6.666;2024-03-22T11:54:42;3.58;;;3.03;;
55210;SDS011;41082;52.822;6.666;2024-03-22T11:57:10;4.93;;;3.55;;
55210;SDS011;41082;52.822;6.666;2024-03-22T11:59:36;3.67;;;2.33;;
55210;SDS011;41082;52.822;6.666;2024-03-22T12:02:05;3.97;;;2.70;;
55210;SDS011;41082;52.822;6.666;2024-03-22T12:04:32;3.30;;;2.80;;
55210;SDS011;41082;52.822;6.666;2024-03-22T12:06:58;5.88;;;2.70;;
55210;SDS011;41082;52.822;6.666;2024-03-22T12:09:23;3.50;;;2.63;;
55210;SDS011;41082;52.822;6.666;2024-03-22T12:11:49;4.22;;;2.53;;
55210;SDS011;41082;52.822;6.666;2024-03-22T12:14:15;5.45;;;3.60;;
55210;SDS011;41082;52.822;6.666;2024-03-22T12:16:40;5.18;;;2.95;;
55210;SDS011;41082;52.822;6.666;2024-03-22T12:19:06;3.72;;;3.13;;
55210;SDS011;41082;52.822;6.666;2024-03-22T12:21:31;3.28;;;2.75;;
55210;SDS011;41082;52.822;6.666;2024-03-22T12:23:57;3.13;;;2.42;;
55210;SDS011;41082;52.822;6.666;2024-03-22T12:26:23;3.63;;;2.60;;
55210;SDS011;41082;52.822;6.666;2024-03-22T12:28:48;4.05;;;2.90;;
55210;SDS011;41082;52.822;6.666;2024-03-22T12:31:16;4.95;;;3.03;;
55210;SDS011;41082;52.822;6.666;2024-03-22T12:33:43;3.88;;;2.72;;
55210;SDS011;41082;52.822;6.666;2024-03-22T12:36:09;3.83;;;2.85;;
55210;SDS011;41082;52.822;6.666;2024-03-22T12:38:35;3.47;;;2.55;;
55210;SDS011;41082;52.822;6.666;2024-03-22T12:41:00;6.00;;;3.13;;
55210;SDS011;41082;52.822;6.666;2024-03-22T12:43:26;2.60;;;2.20;;
55210;SDS011;41082;52.822;6.666;2024-03-22T12:45:51;3.78;;;1.40;;
55210;SDS011;41082;52.822;6.666;2024-03-22T12:48:17;2.17;;;1.25;;
55210;SDS011;41082;52.822;6.666;2024-03-22T12:50:43;2.75;;;0.90;;
55210;SDS011;41082;52.822;6.666;2024-03-22T12:53:08;4.15;;;0.98;;
55210;SDS011;41082;52.822;6.666;2024-03-22T12:55:34;5.15;;;1.00;;
55210;SDS011;41082;52.822;6.666;2024-03-22T12:58:00;5.03;;;1.30;;
55210;SDS011;41082;52.822;6.666;2024-03-22T13:00:25;6.47;;;1.67;;
55210;SDS011;41082;52.822;6.666;2024-03-22T13:02:51;6.30;;;1.02;;
55210;SDS011;41082;52.822;6.666;2024-03-22T13:05:17;6.53;;;1.40;;
55210;SDS011;41082;52.822;6.666;2024-03-22T13:07:43;7.00;;;1.55;;
55210;SDS011;41082;52.822;6.666;2024-03-22T13:10:09;4.03;;;1.13;;
55210;SDS011;41082;52.822;6.666;2024-03-22T13:12:35;3.70;;;1.30;;
55210;SDS011;41082;52.822;6.666;2024-03-22T13:15:01;2.95;;;1.60;;
55210;SDS011;41082;52.822;6.666;2024-03-22T13:17:27;4.55;;;1.20;;
55210;SDS011;41082;52.822;6.666;2024-03-22T13:19:52;5.43;;;1.30;;
55210;SDS011;41082;52.822;6.666;2024-03-22T13:22:18;5.00;;;1.52;;
55210;SDS011;41082;52.822;6.666;2024-03-22T13:24:44;7.50;;;1.60;;
55210;SDS011;41082;52.822;6.666;2024-03-22T13:27:10;6.55;;;1.50;;
55210;SDS011;41082;52.822;6.666;2024-03-22T13:29:37;5.68;;;2.83;;
55210;SDS011;41082;52.822;6.666;2024-03-22T13:32:03;7.93;;;1.95;;
55210;SDS011;41082;52.822;6.666;2024-03-22T13:34:30;8.63;;;2.33;;
55210;SDS011;41082;52.822;6.666;2024-03-22T13:36:56;8.48;;;2.17;;
55210;SDS011;41082;52.822;6.666;2024-03-22T13:39:22;8.32;;;2.63;;
55210;SDS011;41082;52.822;6.666;2024-03-22T13:41:48;10.50;;;2.88;;
55210;SDS011;41082;52.822;6.666;2024-03-22T13:44:14;14.02;;;3.45;;
55210;SDS011;41082;52.822;6.666;2024-03-22T13:46:39;8.82;;;2.25;;
55210;SDS011;41082;52.822;6.666;2024-03-22T13:49:13;6.93;;;2.22;;
55210;SDS011;41082;52.822;6.666;2024-03-22T13:51:43;11.32;;;2.80;;
55210;SDS011;41082;52.822;6.666;2024-03-22T13:54:09;11.60;;;3.25;;
55210;SDS011;41082;52.822;6.666;2024-03-22T13:56:37;11.30;;;3.53;;
55210;SDS011;41082;52.822;6.666;2024-03-22T13:59:05;9.65;;;3.08;;
55210;SDS011;41082;52.822;6.666;2024-03-22T14:01:37;12.85;;;3.47;;
55210;SDS011;41082;52.822;6.666;2024-03-22T14:04:05;9.25;;;3.20;;
55210;SDS011;41082;52.822;6.666;2024-03-22T14:06:31;14.50;;;4.47;;
55210;SDS011;41082;52.822;6.666;2024-03-22T14:08:58;10.98;;;3.85;;
55210;SDS011;41082;52.822;6.666;2024-03-22T14:11:27;9.55;;;3.55;;
55210;SDS011;41082;52.822;6.666;2024-03-22T14:13:53;11.82;;;4.00;;
55210;SDS011;41082;52.822;6.666;2024-03-22T14:16:18;12.95;;;3.85;;
55210;SDS011;41082;52.822;6.666;2024-03-22T14:18:44;8.70;;;3.70;;
55210;SDS011;41082;52.822;6.666;2024-03-22T14:21:10;13.80;;;4.15;;
55210;SDS011;41082;52.822;6.666;2024-03-22T14:23:39;11.30;;;4.00;;
55210;SDS011;41082;52.822;6.666;2024-03-22T14:26:05;11.63;;;5.10;;